createdAt,value
2022-12-08T00:00:06.004Z,10.07
2022-12-08T00:03:21.397Z,9.13
2022-12-08T00:06:43.326Z,10.60
2022-12-08T00:09:51.925Z,10.13
2022-12-08T00:13:00.339Z,9.93
2022-12-08T00:16:09.061Z,10.47
2022-12-08T00:19:17.321Z,10.90
2022-12-08T00:22:32.375Z,10.73
2022-12-08T00:25:40.898Z,11.63
2022-12-08T00:28:50.349Z,13.25
2022-12-08T00:31:59.014Z,15.27
2022-12-08T00:35:07.351Z,16.75
2022-12-08T00:38:16.403Z,16.95
2022-12-08T00:41:27.294Z,17.73
2022-12-08T00:44:35.867Z,17.73
2022-12-08T00:47:50.333Z,17.80
2022-12-08T00:50:59.142Z,18.58
2022-12-08T00:54:15.371Z,19.62
2022-12-08T00:57:24.169Z,19.33
2022-12-08T01:00:32.383Z,20.10
2022-12-08T01:03:47.995Z,19.63
2022-12-08T01:06:56.313Z,18.65
2022-12-08T01:10:12.416Z,17.85
2022-12-08T01:13:20.325Z,18.60
2022-12-08T01:16:39.405Z,18.77
2022-12-08T01:19:47.405Z,18.37
2022-12-08T01:22:55.922Z,18.27
2022-12-08T01:26:10.369Z,18.55
2022-12-08T01:29:19.298Z,19.20
2022-12-08T01:32:27.475Z,20.27
2022-12-08T01:35:36.022Z,19.37
2022-12-08T01:38:44.359Z,19.20
2022-12-08T01:41:59.379Z,21.50
2022-12-08T01:45:24.994Z,20.73
2022-12-08T01:48:34.362Z,23.38
2022-12-08T01:51:59.369Z,22.30
2022-12-08T01:55:07.314Z,21.60
2022-12-08T01:58:29.367Z,22.33
2022-12-08T02:01:31.343Z,21.45
2022-12-08T02:04:53.382Z,22.33
2022-12-08T02:07:57.225Z,20.80
2022-12-08T02:11:16.363Z,20.27
2022-12-08T02:14:32.455Z,21.58
2022-12-08T02:18:01.367Z,21.55
2022-12-08T02:21:26.535Z,22.05
2022-12-08T02:24:38.894Z,20.13
2022-12-08T02:28:14.406Z,19.40
2022-12-08T02:31:52.370Z,20.95
2022-12-08T02:35:21.398Z,18.98
2022-12-08T02:38:49.703Z,19.73
2022-12-08T02:42:08.394Z,20.33
2022-12-08T02:45:29.706Z,19.27
2022-12-08T02:48:40.394Z,20.30
2022-12-08T02:51:49.057Z,20.50
2022-12-08T02:55:06.445Z,20.48
2022-12-08T02:58:48.345Z,20.40
2022-12-08T03:02:14.125Z,22.17
2022-12-08T03:06:02.463Z,22.95
2022-12-08T03:09:23.433Z,21.95
2022-12-08T03:12:40.026Z,20.88
2022-12-08T03:15:52.827Z,21.87
2022-12-08T03:19:10.061Z,20.60
2022-12-08T03:22:30.403Z,18.92
2022-12-08T03:25:43.417Z,18.08
2022-12-08T03:28:52.386Z,16.37
2022-12-08T03:32:22.432Z,15.70
2022-12-08T03:35:41.423Z,16.73
2022-12-08T03:38:45.683Z,16.15
2022-12-08T03:42:00.393Z,16.15
2022-12-08T03:45:02.246Z,14.57
2022-12-08T03:48:17.403Z,15.27
2022-12-08T03:51:26.418Z,14.52
2022-12-08T03:54:35.036Z,14.87
2022-12-08T03:57:43.442Z,14.45
2022-12-08T04:00:52.144Z,12.30
2022-12-08T04:04:07.469Z,11.00
2022-12-08T04:07:22.519Z,11.20
2022-12-08T04:10:24.426Z,11.30
2022-12-08T04:13:41.421Z,11.12
2022-12-08T04:16:43.285Z,12.27
2022-12-08T04:19:58.449Z,11.67
2022-12-08T04:23:06.439Z,13.60
2022-12-08T04:26:16.692Z,11.35
2022-12-08T04:29:25.443Z,11.00
2022-12-08T04:32:34.071Z,11.65
2022-12-08T04:35:42.427Z,11.43
2022-12-08T04:38:51.107Z,11.10
2022-12-08T04:42:00.470Z,11.48
2022-12-08T04:45:09.420Z,12.10
2022-12-08T04:48:24.474Z,10.90
2022-12-08T04:51:33.100Z,11.17
2022-12-08T04:54:41.434Z,10.60
2022-12-08T04:57:56.497Z,11.60
2022-12-08T05:01:04.485Z,10.40
2022-12-08T05:04:26.433Z,11.50
2022-12-08T05:07:41.580Z,14.03
2022-12-08T05:10:50.153Z,12.70
2022-12-08T05:13:58.438Z,13.35
2022-12-08T05:17:09.727Z,12.15
2022-12-08T05:20:24.537Z,12.50
2022-12-08T05:23:27.055Z,12.30
2022-12-08T05:26:41.519Z,13.35
2022-12-08T05:29:51.281Z,13.48
2022-12-08T05:33:06.465Z,14.05
2022-12-08T05:36:10.362Z,15.90
2022-12-08T05:39:25.516Z,16.43
2022-12-08T05:42:27.553Z,17.98
2022-12-08T05:45:42.568Z,18.67
2022-12-08T05:48:44.502Z,17.83
2022-12-08T05:51:59.527Z,17.05
2022-12-08T05:55:09.494Z,18.07
2022-12-08T05:58:20.967Z,17.33
2022-12-08T06:01:32.527Z,17.08
2022-12-08T06:04:54.518Z,18.05
2022-12-08T06:07:56.397Z,18.20
2022-12-08T06:11:11.477Z,17.43
2022-12-08T06:14:20.490Z,18.62
2022-12-08T06:17:35.515Z,18.10
2022-12-08T06:20:43.555Z,19.12
2022-12-08T06:23:56.923Z,17.12
2022-12-08T06:27:12.476Z,16.83
2022-12-08T06:30:14.827Z,16.75
2022-12-08T06:33:29.530Z,16.42
2022-12-08T06:36:31.762Z,16.90
2022-12-08T06:39:46.503Z,17.25
2022-12-08T06:42:48.413Z,16.17
2022-12-08T06:46:03.633Z,16.37
2022-12-08T06:49:12.543Z,16.85
2022-12-08T06:52:21.150Z,15.90
2022-12-08T06:55:57.782Z,14.98
2022-12-08T06:59:05.751Z,16.40
2022-12-08T07:02:21.675Z,15.02
2022-12-08T07:05:29.861Z,16.75
2022-12-08T07:08:44.551Z,15.90
2022-12-08T07:11:59.545Z,16.98
2022-12-08T07:15:01.484Z,16.93
2022-12-08T07:18:19.587Z,15.90
2022-12-08T07:21:34.594Z,15.95
2022-12-08T07:24:36.610Z,15.30
2022-12-08T07:27:52.605Z,17.08
2022-12-08T07:30:54.669Z,20.80
2022-12-08T07:34:12.760Z,19.48
2022-12-08T07:37:14.626Z,17.37
2022-12-08T07:40:29.751Z,18.10
2022-12-08T07:43:38.843Z,18.50
2022-12-08T07:46:56.195Z,18.53
2022-12-08T07:50:04.856Z,15.90
2022-12-08T07:53:20.553Z,16.12
2022-12-08T07:56:31.354Z,16.00
2022-12-08T07:59:41.776Z,17.05
2022-12-08T08:03:03.613Z,15.30
2022-12-08T08:06:18.591Z,16.97
2022-12-08T08:09:28.365Z,15.53
2022-12-08T08:12:50.659Z,16.62
2022-12-08T08:19:32.958Z,17.60
2022-12-08T08:22:58.907Z,16.47
2022-12-08T08:26:15.851Z,14.93
2022-12-08T08:29:46.757Z,15.80
2022-12-08T08:33:00.236Z,17.62
2022-12-08T08:36:10.659Z,18.85
2022-12-08T08:39:29.583Z,18.90
2022-12-08T08:42:45.670Z,15.77
2022-12-08T08:45:58.348Z,17.55
2022-12-08T08:49:14.595Z,18.45
2022-12-08T08:52:16.714Z,16.85
2022-12-08T08:55:31.694Z,14.73
2022-12-08T08:58:40.604Z,15.20
2022-12-08T09:01:49.436Z,14.75
2022-12-08T09:05:12.605Z,19.33
2022-12-08T09:08:21.689Z,15.38
2022-12-08T09:11:31.615Z,14.73
2022-12-08T09:14:40.598Z,16.27
2022-12-08T09:17:55.706Z,14.68
2022-12-08T09:21:14.726Z,15.77
2022-12-08T09:24:23.706Z,16.60
2022-12-08T09:27:32.434Z,14.00
2022-12-08T09:30:43.644Z,17.03
2022-12-08T09:33:52.365Z,15.27
2022-12-08T09:37:08.674Z,15.00
2022-12-08T09:40:21.256Z,15.70
2022-12-08T09:44:05.604Z,14.77
2022-12-08T09:47:35.876Z,16.60
2022-12-08T09:50:53.356Z,17.67
2022-12-08T09:54:07.729Z,17.77
2022-12-08T09:57:20.952Z,16.50
2022-12-08T10:00:29.725Z,16.63
2022-12-08T10:03:45.526Z,18.37
2022-12-08T10:07:11.646Z,17.25
2022-12-08T10:10:46.843Z,13.50
2022-12-08T10:14:15.454Z,14.57
2022-12-08T10:17:35.678Z,15.27
2022-12-08T10:20:44.375Z,14.03
2022-12-08T10:24:08.732Z,14.48
2022-12-08T10:27:17.365Z,13.95
2022-12-08T10:30:31.886Z,13.60
2022-12-08T10:33:40.250Z,14.13
2022-12-08T10:40:36.869Z,11.98
2022-12-08T10:43:59.813Z,9.63
2022-12-08T10:47:17.081Z,12.45
2022-12-08T10:50:38.682Z,9.80
2022-12-08T10:53:47.747Z,9.87
2022-12-08T10:57:04.698Z,10.65
2022-12-08T11:00:18.073Z,9.18
2022-12-08T11:03:39.653Z,8.73
2022-12-08T11:06:56.673Z,8.77
2022-12-08T11:10:06.564Z,8.30
2022-12-08T11:13:26.708Z,9.43
2022-12-08T11:16:36.192Z,8.93
2022-12-08T11:20:00.758Z,8.50
2022-12-08T11:23:28.719Z,8.93
2022-12-08T11:26:35.331Z,9.67
2022-12-08T11:29:49.874Z,10.40
2022-12-08T11:33:06.700Z,10.10
2022-12-08T11:36:22.682Z,9.88
2022-12-08T11:39:34.588Z,9.60
2022-12-08T11:43:07.956Z,10.73
2022-12-08T11:46:26.816Z,9.65
2022-12-08T11:49:39.872Z,8.48
2022-12-08T11:52:58.930Z,9.20
2022-12-08T11:56:26.747Z,10.47
2022-12-08T11:59:41.919Z,10.23
2022-12-08T12:03:14.789Z,9.55
2022-12-08T12:06:55.606Z,9.73
2022-12-08T12:10:36.030Z,10.45
2022-12-08T12:14:14.998Z,10.43
2022-12-08T12:17:51.739Z,9.27
2022-12-08T12:21:18.769Z,11.35
2022-12-08T12:24:36.267Z,11.02
2022-12-08T12:27:47.710Z,9.95
2022-12-08T12:31:06.931Z,9.53
2022-12-08T12:34:23.766Z,9.73
2022-12-08T12:37:46.815Z,10.30
2022-12-08T12:40:50.202Z,10.43
2022-12-08T12:44:31.088Z,9.80
2022-12-08T12:47:57.815Z,8.87
2022-12-08T12:51:00.082Z,9.23
2022-12-08T12:54:28.830Z,9.80
2022-12-08T12:57:49.638Z,10.07
2022-12-08T13:01:34.876Z,9.38
2022-12-08T13:05:11.807Z,9.00
2022-12-08T13:08:23.178Z,7.90
2022-12-08T13:11:53.718Z,9.73
2022-12-08T13:15:08.727Z,9.80
2022-12-08T13:18:38.831Z,9.15
2022-12-08T13:21:41.062Z,11.03
2022-12-08T13:24:55.858Z,8.60
2022-12-08T13:28:24.721Z,10.40
2022-12-08T13:31:38.437Z,8.60
2022-12-08T13:35:01.834Z,6.53
2022-12-08T13:38:04.620Z,10.50
2022-12-08T13:41:28.819Z,9.77
2022-12-08T13:50:42.721Z,9.38
2022-12-08T13:59:35.890Z,9.40
2022-12-08T14:02:48.969Z,11.70
2022-12-08T14:06:12.620Z,10.52
2022-12-08T14:09:22.307Z,11.27
2022-12-08T14:12:37.819Z,12.97
2022-12-08T14:15:52.894Z,11.63
2022-12-08T14:19:19.986Z,10.90
2022-12-08T14:22:49.259Z,10.88
2022-12-08T14:25:51.631Z,10.15
2022-12-08T14:29:08.163Z,10.07
2022-12-08T14:32:39.308Z,10.37
2022-12-08T14:35:59.786Z,10.93
2022-12-08T14:39:15.854Z,10.05
2022-12-08T14:42:24.200Z,10.13
2022-12-08T14:45:40.402Z,9.73
2022-12-08T14:48:42.546Z,10.30
2022-12-08T14:51:57.838Z,10.05
2022-12-08T14:55:07.668Z,10.65
2022-12-08T14:58:26.762Z,10.70
2022-12-08T15:01:36.321Z,10.53
2022-12-08T15:04:49.677Z,10.63
2022-12-08T15:08:22.921Z,9.23
2022-12-08T15:11:36.593Z,9.95
2022-12-08T15:15:23.546Z,10.95
2022-12-08T15:18:42.875Z,11.83
2022-12-08T15:21:59.277Z,10.80
2022-12-08T15:25:12.530Z,10.13
2022-12-08T15:28:31.258Z,10.70
2022-12-08T15:31:36.639Z,7.18
2022-12-08T15:34:53.116Z,10.13
2022-12-08T15:38:08.902Z,11.53
2022-12-08T15:41:15.203Z,10.32
2022-12-08T15:44:29.793Z,12.93
2022-12-08T15:47:33.590Z,11.93
2022-12-08T15:50:49.860Z,10.37
2022-12-08T15:53:59.902Z,10.53
2022-12-08T16:01:08.233Z,10.65
2022-12-08T16:05:06.412Z,12.60
2022-12-08T16:08:17.082Z,12.83
2022-12-08T16:11:56.597Z,12.47
2022-12-08T16:15:48.424Z,11.73
2022-12-08T16:25:17.813Z,12.20
2022-12-08T16:31:56.114Z,11.93
2022-12-08T16:35:08.079Z,13.20
2022-12-08T16:38:23.871Z,11.45
2022-12-08T16:41:32.848Z,11.03
2022-12-08T16:44:42.221Z,11.10
2022-12-08T16:48:00.864Z,11.48
2022-12-08T16:51:15.821Z,11.23
2022-12-08T16:54:30.863Z,11.05
2022-12-08T16:57:46.870Z,10.83
2022-12-08T17:00:48.857Z,10.87
2022-12-08T17:07:32.427Z,10.77
2022-12-08T17:10:47.858Z,10.93
2022-12-08T17:13:49.710Z,11.87
2022-12-08T17:17:04.939Z,11.37
2022-12-08T17:20:17.858Z,10.38
2022-12-08T17:23:26.450Z,10.57
2022-12-08T17:26:40.895Z,10.80
2022-12-08T17:29:49.919Z,9.83
2022-12-08T17:33:04.839Z,11.00
2022-12-08T17:36:11.481Z,10.30
2022-12-08T17:39:25.951Z,10.10
2022-12-08T17:42:34.406Z,10.70
2022-12-08T17:45:48.982Z,10.07
2022-12-08T17:49:03.974Z,9.50
2022-12-08T17:52:12.918Z,11.12
2022-12-08T17:55:27.834Z,8.95
2022-12-08T17:58:29.790Z,8.57
2022-12-08T18:01:45.906Z,9.90
2022-12-08T18:05:07.837Z,9.67
2022-12-08T18:08:17.126Z,9.43
2022-12-08T18:11:34.007Z,9.70
2022-12-08T18:14:35.844Z,9.32
2022-12-08T18:17:50.903Z,10.93
2022-12-08T18:21:05.922Z,8.97
2022-12-08T18:24:15.859Z,8.65
2022-12-08T18:27:30.905Z,9.15
2022-12-08T18:30:33.129Z,9.43
2022-12-08T18:33:49.946Z,9.90
2022-12-08T18:36:58.450Z,10.87
2022-12-08T18:40:07.203Z,12.05
2022-12-08T18:43:15.657Z,10.75
2022-12-08T18:46:23.987Z,9.15
2022-12-08T18:49:32.566Z,10.77
2022-12-08T18:52:46.917Z,9.93
2022-12-08T18:56:01.862Z,10.30
2022-12-08T18:59:13.891Z,9.73
2022-12-08T19:02:30.045Z,9.98
2022-12-08T19:05:31.951Z,9.70
2022-12-08T19:08:49.438Z,9.20
2022-12-08T19:11:58.052Z,9.48
2022-12-08T19:15:13.888Z,9.85
2022-12-08T19:18:16.071Z,10.35
2022-12-08T19:21:31.874Z,8.90
2022-12-08T19:24:40.755Z,9.40
2022-12-08T19:27:48.909Z,9.18
2022-12-08T19:31:03.996Z,9.05
2022-12-08T19:34:06.100Z,9.95
2022-12-08T19:37:20.914Z,8.80
2022-12-08T19:40:28.940Z,10.40
2022-12-08T19:43:37.580Z,9.90
2022-12-08T19:46:45.994Z,10.05
2022-12-08T19:49:55.224Z,9.82
2022-12-08T19:53:12.937Z,10.80
2022-12-08T19:56:27.893Z,11.00
2022-12-08T19:59:37.035Z,10.23
2022-12-08T20:02:52.981Z,10.75
2022-12-08T20:06:00.987Z,11.05
2022-12-08T20:09:16.970Z,9.87
2022-12-08T20:12:25.703Z,13.30
2022-12-08T20:15:34.011Z,10.85
2022-12-08T20:18:43.689Z,10.10
2022-12-08T20:21:59.078Z,11.50
2022-12-08T20:25:12.803Z,9.93
2022-12-08T20:28:21.954Z,10.83
2022-12-08T20:31:38.993Z,11.57
2022-12-08T20:34:41.078Z,11.00
2022-12-08T20:37:55.963Z,11.20
2022-12-08T20:40:59.285Z,11.10
2022-12-08T20:44:14.953Z,12.00
2022-12-08T20:47:23.912Z,12.52
2022-12-08T20:50:32.192Z,12.13
2022-12-08T20:53:40.761Z,10.95
2022-12-08T20:56:49.097Z,12.53
2022-12-08T20:59:57.876Z,11.53
2022-12-08T21:03:13.129Z,11.73
2022-12-08T21:06:28.200Z,12.45
2022-12-08T21:09:37.288Z,12.43
2022-12-08T21:12:45.758Z,12.27
2022-12-08T21:15:54.119Z,13.03
2022-12-08T21:19:09.322Z,12.18
2022-12-08T21:22:11.401Z,12.60
2022-12-08T21:25:26.078Z,12.57
2022-12-08T21:28:35.013Z,12.63
2022-12-08T21:31:50.154Z,13.17
2022-12-08T21:34:59.038Z,13.45
2022-12-08T21:38:14.082Z,13.40
2022-12-08T21:41:19.805Z,12.63
2022-12-08T21:44:35.262Z,12.47
2022-12-08T21:47:37.184Z,13.07
2022-12-08T21:50:52.065Z,12.82
2022-12-08T21:53:54.735Z,14.07
2022-12-08T21:57:10.290Z,12.98
2022-12-08T22:00:22.296Z,12.97
2022-12-08T22:03:37.199Z,12.80
2022-12-08T22:06:45.321Z,13.95
2022-12-08T22:10:00.304Z,14.18
2022-12-08T22:13:08.690Z,13.77
2022-12-08T22:16:19.277Z,14.40
2022-12-08T22:19:27.527Z,14.27
2022-12-08T22:22:36.166Z,14.63
2022-12-08T22:25:47.059Z,13.52
2022-12-08T22:29:03.010Z,13.82
2022-12-08T22:32:12.029Z,13.83
2022-12-08T22:35:20.687Z,15.13
2022-12-08T22:38:29.160Z,16.98
2022-12-08T22:41:37.768Z,14.25
2022-12-08T22:44:53.052Z,13.93
2022-12-08T22:47:55.088Z,15.63
2022-12-08T22:51:10.139Z,15.50
2022-12-08T22:54:19.058Z,15.90
2022-12-08T22:57:35.130Z,14.27
2022-12-08T23:00:37.969Z,15.07
2022-12-08T23:03:53.376Z,15.27
2022-12-08T23:07:03.022Z,15.63
2022-12-08T23:10:19.234Z,14.85
2022-12-08T23:13:21.934Z,15.35
2022-12-08T23:16:37.053Z,15.80
2022-12-08T23:19:39.823Z,15.97
2022-12-08T23:22:55.233Z,15.00
2022-12-08T23:25:57.393Z,15.05
2022-12-08T23:29:12.122Z,16.42
2022-12-08T23:32:21.104Z,15.63
2022-12-08T23:35:29.618Z,16.40
2022-12-08T23:38:38.040Z,16.23
2022-12-08T23:41:52.986Z,15.82
2022-12-08T23:44:54.825Z,15.88
2022-12-08T23:48:11.214Z,15.40
2022-12-08T23:51:14.009Z,16.23
2022-12-08T23:54:29.067Z,17.17
2022-12-08T23:57:37.108Z,16.20
